Corpus Christi Naval Air Station,Truax Field Corpus Christi US
ICAO: KNGP
IATA: NGP
Category: Medium
Scheduled Services: No

Elevation: 18 ft
TransAlt. 18000 ft.

Airport Communications:
APP:120.9
ATIS:114
NAVY CORPUS CLNC DEL:31.43
DEP:125.4
NAVY CORPUS GND:118.7
AIR:38.18
BASE OPS:34.665
PMSV METRO:34.35
NAVY CORPUS TWR:134.85

KNGP Zoom In..

Runways:

(A) RW 04 length 5004 ft width 196 ft
---- / hdg 39

(B) RW 13L length 5000 ft width 196 ft
---- / hdg 129

(C) RW 13R length 8002 ft width 200 ft
ILS 111.30 / hdg 129

(D) RW 17 length 5003 ft width 196 ft
---- / hdg 173

(E) RW 22 length 5004 ft width 196 ft
---- / hdg 219

(F) RW 31L length 8002 ft width 200 ft
---- / hdg 309

(G) RW 31R length 5000 ft width 196 ft
---- / hdg 309

(H) RW 35 length 5003 ft width 196 ft
---- / hdg 353

Location; KNGP
Day. 23 / Time. 14.56 Zulu
* Altimeter: 30.28
* Temperature: 12° c. 53.6°f.
* Wind from: 010° Speed 07 kn.
Dewpoint: 04° c.
Visibility: 10 Statute Miles.
Clouds: Few 25000 ft.
Clouds: Broken 3000 ft.

KNGP 231456Z 01007KT 10SM FEW250 BKN300 12/04 A3028 RMK AO2 SLP253 T01170044 53019


Wind From 010°
Speed 07 kn.

YouTube Music Video
 
jpsmedia.com for Web Design  worldairports.se 2018   terms of use